Terminal Aerodrome Forecast
Issued by NWS Sterling, VA

Home | Current Version | Previous Version | Text Only | Print | Product List | Glossary On
Versions: 1 2 3 4 5 6 7 8 9 10 11 12 13 14 15 16 17 18 19 20 21 22 23 24 25 26 27
000
FTUS41 KLWX 060540
TAFDCA
TAF
KDCA 060540Z 0606/0706 21005KT P6SM FEW150
     FM060800 VRB04KT 5SM BR SCT090
     FM061100 04005KT P6SM BKN070
     FM062100 09008KT P6SM VCSH BKN040
     FM070000 11008KT P6SM BKN090=

USA.gov is the U.S. government's official web portal to all federal, state and local government web resources and services.